Sunday, July 22, 2018, 2:32 AM EDT
Back to Local

KBGR, Bangor Int'l Airport

Location: Bangor, ME, United States Lat: 44.8
Local Time: 2:32 AM EDT ( 6:32 GMT) Lon: -68.817
Time Zone: US/Eastern Elev: 193 ft

Show me the last for .
Show Coded

Time T Td Feel RH Dir Speed Gust Alt SLP Vis Weather Sky Remarks
2018-07-22 01:53 56 52 - 86 - Calm - 30.18 30.16 10 CLR 6-hr Min Temp (2am): 54.0°F
6-hr Max Temp (2am): 72.0°F
2018-07-22 00:53 55 51 - 86 - Calm - 30.17 30.16 10 FEW250 24-hr Min Temp (1am): 52.0°F
24-hr Max Temp (1am): 84.9°F
2018-07-21 23:53 57 52 - 83 - Calm - 30.17 30.16 10 FEW250 None
2018-07-21 22:53 62 51 - 67 160° 5 - 30.17 30.16 10 FEW250 None
2018-07-21 21:53 66 54 - 65 180° 5 - 30.17 30.16 10 FEW250 None
2018-07-21 20:53 69 54 - 58 200° 8 - 30.16 30.15 10 FEW250 None
2018-07-21 19:53 72 55 76 55 160° 10 - 30.15 30.14 10 FEW250 6-hr Min Temp (8pm): 72.0°F
6-hr Max Temp (8pm): 84.9°F
2018-07-21 18:53 77 55 78 46 180° 12 - 30.14 30.13 10 FEW250 None
2018-07-21 17:53 81 56 81 42 180° 12 - 30.12 30.11 10 FEW250 None
2018-07-21 16:53 83 55 - 38 200° 9 - 30.12 30.11 10 FEW250 None
2018-07-21 15:53 83 55 - 38 210° 6 - 30.13 30.12 10 FEW250 None
2018-07-21 14:53 83 56 - 39 220° 7 - 30.14 30.13 10 FEW250 None
2018-07-21 13:53 81 54 - 39 Variable 5 - 30.15 30.14 10 CLR 6-hr Min Temp (2pm): 64.9°F
6-hr Max Temp (2pm): 82.0°F
2018-07-21 12:53 81 52 - 36 80° 8 - 30.16 30.15 10 CLR None
2018-07-21 11:53 78 54 79 43 - Calm - 30.19 30.18 10 CLR None
2018-07-21 10:53 77 52 78 41 100° 3 - 30.19 30.18 10 CLR None
2018-07-21 09:53 73 50 76 44 190° 3 - 30.19 30.18 10 CLR None
2018-07-21 08:53 72 56 76 57 Variable 3 - 30.20 30.19 10 CLR None
2018-07-21 07:53 65 59 - 81 - Calm - 30.21 30.19 10 CLR 6-hr Min Temp (8am): 52.0°F
6-hr Max Temp (8am): 64.9°F
2018-07-21 06:53 59 57 - 93 - Calm - 30.20 30.19 10 CLR None
2018-07-21 05:53 54 54 - 100 - Calm - 30.19 30.18 10 CLR None
2018-07-21 04:53 53 53 - 100 - Calm - 30.19 30.18 10 CLR None
2018-07-21 03:53 56 56 - 100 - Calm - 30.19 30.18 10 CLR None
2018-07-21 02:53 56 56 - 100 - Calm - 30.19 30.18 10 CLR None

Support USWX by starting your Amazon purchase here.